sensor_id;sensor_type;location;lat;lon;timestamp;pressure;altitude;pressure_sealevel;temperature;humidity
33795;BME280;51430;52.242;21.118;2023-07-31T00:00:56;99676.20;;;21.33;70.23
33795;BME280;51430;52.242;21.118;2023-07-31T00:03:26;99674.07;;;21.33;70.37
33795;BME280;51430;52.242;21.118;2023-07-31T00:05:54;99674.63;;;21.30;70.09
33795;BME280;51430;52.242;21.118;2023-07-31T00:08:22;99672.22;;;21.27;70.18
33795;BME280;51430;52.242;21.118;2023-07-31T00:10:53;99672.30;;;21.28;70.09
33795;BME280;51430;52.242;21.118;2023-07-31T00:13:21;99678.22;;;21.24;70.16
33795;BME280;51430;52.242;21.118;2023-07-31T00:15:49;99679.88;;;21.19;70.46
33795;BME280;51430;52.242;21.118;2023-07-31T00:18:17;99674.43;;;21.13;70.37
33795;BME280;51430;52.242;21.118;2023-07-31T00:20:44;99676.58;;;21.07;70.62
33795;BME280;51430;52.242;21.118;2023-07-31T00:23:12;99674.77;;;21.05;70.76
33795;BME280;51430;52.242;21.118;2023-07-31T00:25:41;99680.08;;;21.04;70.85
33795;BME280;51430;52.242;21.118;2023-07-31T00:28:09;99681.42;;;21.02;71.01
33795;BME280;51430;52.242;21.118;2023-07-31T00:30:37;99679.79;;;20.96;71.40
33795;BME280;51430;52.242;21.118;2023-07-31T00:33:05;99682.08;;;20.91;71.92
33795;BME280;51430;52.242;21.118;2023-07-31T00:35:33;99678.75;;;20.89;71.93
33795;BME280;51430;52.242;21.118;2023-07-31T00:38:01;99676.45;;;20.85;72.17
33795;BME280;51430;52.242;21.118;2023-07-31T00:40:29;99672.45;;;20.79;72.50
33795;BME280;51430;52.242;21.118;2023-07-31T00:42:58;99673.61;;;20.82;72.73
33795;BME280;51430;52.242;21.118;2023-07-31T00:45:30;99677.48;;;20.79;72.72
33795;BME280;51430;52.242;21.118;2023-07-31T00:47:59;99672.15;;;20.77;72.86
33795;BME280;51430;52.242;21.118;2023-07-31T00:50:28;99670.14;;;20.74;73.38
33795;BME280;51430;52.242;21.118;2023-07-31T00:52:56;99673.70;;;20.75;73.22
33795;BME280;51430;52.242;21.118;2023-07-31T00:55:24;99669.17;;;20.78;73.25
33795;BME280;51430;52.242;21.118;2023-07-31T00:57:55;99672.25;;;20.79;72.98
33795;BME280;51430;52.242;21.118;2023-07-31T01:00:24;99671.65;;;20.73;73.13
33795;BME280;51430;52.242;21.118;2023-07-31T01:02:52;99672.79;;;20.71;73.44
33795;BME280;51430;52.242;21.118;2023-07-31T01:05:34;99668.30;;;20.67;73.70
33795;BME280;51430;52.242;21.118;2023-07-31T01:08:11;99666.23;;;20.59;74.24
33795;BME280;51430;52.242;21.118;2023-07-31T01:10:48;99670.79;;;20.61;74.44
33795;BME280;51430;52.242;21.118;2023-07-31T01:13:17;99668.00;;;20.58;74.71
33795;BME280;51430;52.242;21.118;2023-07-31T01:15:45;99670.77;;;20.55;74.77
33795;BME280;51430;52.242;21.118;2023-07-31T01:18:13;99674.45;;;20.58;74.75
33795;BME280;51430;52.242;21.118;2023-07-31T01:20:42;99678.41;;;20.56;74.94
33795;BME280;51430;52.242;21.118;2023-07-31T01:24:08;99675.14;;;20.49;75.21
33795;BME280;51430;52.242;21.118;2023-07-31T01:26:28;99678.73;;;20.40;75.06
33795;BME280;51430;52.242;21.118;2023-07-31T01:29:06;99674.76;;;20.38;75.06
33795;BME280;51430;52.242;21.118;2023-07-31T01:31:36;99677.15;;;20.36;74.68
33795;BME280;51430;52.242;21.118;2023-07-31T01:34:06;99674.86;;;20.36;74.53
33795;BME280;51430;52.242;21.118;2023-07-31T01:36:36;99675.98;;;20.37;75.00
33795;BME280;51430;52.242;21.118;2023-07-31T01:39:05;99671.81;;;20.38;74.75
33795;BME280;51430;52.242;21.118;2023-07-31T01:41:32;99669.94;;;20.37;74.97
33795;BME280;51430;52.242;21.118;2023-07-31T01:44:00;99677.11;;;20.36;75.27
33795;BME280;51430;52.242;21.118;2023-07-31T01:46:28;99679.16;;;20.37;74.94
33795;BME280;51430;52.242;21.118;2023-07-31T01:48:57;99681.98;;;20.30;75.20
33795;BME280;51430;52.242;21.118;2023-07-31T01:51:25;99681.03;;;20.24;75.22
33795;BME280;51430;52.242;21.118;2023-07-31T01:53:52;99680.81;;;20.23;75.61
33795;BME280;51430;52.242;21.118;2023-07-31T01:56:20;99677.39;;;20.18;76.33
33795;BME280;51430;52.242;21.118;2023-07-31T01:58:48;99676.51;;;20.12;76.47
33795;BME280;51430;52.242;21.118;2023-07-31T02:01:16;99676.70;;;20.12;75.86
33795;BME280;51430;52.242;21.118;2023-07-31T02:03:45;99683.88;;;20.10;76.08
33795;BME280;51430;52.242;21.118;2023-07-31T02:06:13;99688.90;;;20.05;76.24
33795;BME280;51430;52.242;21.118;2023-07-31T02:08:41;99688.52;;;20.01;76.46
33795;BME280;51430;52.242;21.118;2023-07-31T02:11:08;99689.02;;;19.95;76.62
33795;BME280;51430;52.242;21.118;2023-07-31T02:13:36;99692.16;;;19.95;77.03
33795;BME280;51430;52.242;21.118;2023-07-31T02:16:04;99698.37;;;19.96;76.78
33795;BME280;51430;52.242;21.118;2023-07-31T02:18:32;99697.43;;;19.90;77.08
33795;BME280;51430;52.242;21.118;2023-07-31T02:21:00;99698.88;;;19.87;77.34
33795;BME280;51430;52.242;21.118;2023-07-31T02:23:28;99697.65;;;19.87;77.21
33795;BME280;51430;52.242;21.118;2023-07-31T02:25:56;99698.73;;;19.84;77.27
33795;BME280;51430;52.242;21.118;2023-07-31T02:28:24;99699.13;;;19.83;77.53
33795;BME280;51430;52.242;21.118;2023-07-31T02:30:52;99699.21;;;19.79;77.75
33795;BME280;51430;52.242;21.118;2023-07-31T02:33:20;99701.48;;;19.77;77.43
33795;BME280;51430;52.242;21.118;2023-07-31T02:35:48;99712.59;;;19.78;77.34
33795;BME280;51430;52.242;21.118;2023-07-31T02:38:15;99712.65;;;19.80;77.25
33795;BME280;51430;52.242;21.118;2023-07-31T02:40:44;99709.27;;;19.77;77.06
33795;BME280;51430;52.242;21.118;2023-07-31T02:43:12;99706.19;;;19.71;77.39
33795;BME280;51430;52.242;21.118;2023-07-31T02:45:40;99707.13;;;19.72;77.39
33795;BME280;51430;52.242;21.118;2023-07-31T02:48:08;99708.27;;;19.71;77.78
33795;BME280;51430;52.242;21.118;2023-07-31T02:50:36;99716.19;;;19.74;77.44
33795;BME280;51430;52.242;21.118;2023-07-31T02:53:04;99719.95;;;19.71;77.77
33795;BME280;51430;52.242;21.118;2023-07-31T02:55:31;99717.40;;;19.74;77.87
33795;BME280;51430;52.242;21.118;2023-07-31T02:57:59;99710.91;;;19.77;77.68
33795;BME280;51430;52.242;21.118;2023-07-31T03:00:27;99701.63;;;19.72;77.72
33795;BME280;51430;52.242;21.118;2023-07-31T03:02:55;99701.95;;;19.71;77.76
33795;BME280;51430;52.242;21.118;2023-07-31T03:05:23;99710.25;;;19.72;77.57
33795;BME280;51430;52.242;21.118;2023-07-31T03:07:51;99715.27;;;19.76;77.50
33795;BME280;51430;52.242;21.118;2023-07-31T03:10:19;99714.08;;;19.77;77.65
33795;BME280;51430;52.242;21.118;2023-07-31T03:12:47;99716.80;;;19.78;77.67
33795;BME280;51430;52.242;21.118;2023-07-31T03:15:15;99720.67;;;19.78;77.66
33795;BME280;51430;52.242;21.118;2023-07-31T03:17:43;99712.56;;;19.79;77.49
33795;BME280;51430;52.242;21.118;2023-07-31T03:20:11;99709.80;;;19.81;77.40
33795;BME280;51430;52.242;21.118;2023-07-31T03:22:39;99707.09;;;19.79;77.54
33795;BME280;51430;52.242;21.118;2023-07-31T03:25:07;99710.32;;;19.80;77.48
33795;BME280;51430;52.242;21.118;2023-07-31T03:27:36;99714.39;;;19.86;77.61
33795;BME280;51430;52.242;21.118;2023-07-31T03:30:06;99714.70;;;19.92;77.05
33795;BME280;51430;52.242;21.118;2023-07-31T03:32:35;99714.52;;;19.94;76.46
33795;BME280;51430;52.242;21.118;2023-07-31T03:35:03;99713.98;;;19.96;76.13
33795;BME280;51430;52.242;21.118;2023-07-31T03:37:33;99716.59;;;19.92;76.06
33795;BME280;51430;52.242;21.118;2023-07-31T03:40:01;99724.47;;;19.91;76.19
33795;BME280;51430;52.242;21.118;2023-07-31T03:42:31;99724.45;;;19.94;75.91
33795;BME280;51430;52.242;21.118;2023-07-31T03:44:59;99729.09;;;19.97;75.73
33795;BME280;51430;52.242;21.118;2023-07-31T03:47:27;99732.64;;;20.01;75.75
33795;BME280;51430;52.242;21.118;2023-07-31T03:49:55;99728.84;;;20.06;75.83
33795;BME280;51430;52.242;21.118;2023-07-31T03:52:22;99730.84;;;20.06;75.42
33795;BME280;51430;52.242;21.118;2023-07-31T03:54:50;99732.70;;;20.07;75.15
33795;BME280;51430;52.242;21.118;2023-07-31T03:57:19;99733.19;;;20.08;74.97
33795;BME280;51430;52.242;21.118;2023-07-31T03:59:47;99742.36;;;20.07;74.79
33795;BME280;51430;52.242;21.118;2023-07-31T04:02:15;99744.55;;;20.05;74.75
33795;BME280;51430;52.242;21.118;2023-07-31T04:04:44;99745.23;;;20.03;74.71
33795;BME280;51430;52.242;21.118;2023-07-31T04:07:12;99743.91;;;20.04;74.98
33795;BME280;51430;52.242;21.118;2023-07-31T04:09:39;99745.64;;;20.06;74.69
33795;BME280;51430;52.242;21.118;2023-07-31T04:12:07;99747.73;;;20.07;74.63
33795;BME280;51430;52.242;21.118;2023-07-31T04:14:35;99748.12;;;20.09;74.53
33795;BME280;51430;52.242;21.118;2023-07-31T04:17:03;99755.43;;;20.10;74.14
33795;BME280;51430;52.242;21.118;2023-07-31T04:19:31;99758.82;;;20.12;74.15
33795;BME280;51430;52.242;21.118;2023-07-31T04:21:59;99758.60;;;20.13;74.21
33795;BME280;51430;52.242;21.118;2023-07-31T04:24:27;99759.80;;;20.16;73.94
33795;BME280;51430;52.242;21.118;2023-07-31T04:26:55;99757.80;;;20.05;73.74
33795;BME280;51430;52.242;21.118;2023-07-31T04:29:24;99760.94;;;20.00;74.27
33795;BME280;51430;52.242;21.118;2023-07-31T04:31:51;99765.80;;;20.00;73.76
33795;BME280;51430;52.242;21.118;2023-07-31T04:34:19;99764.64;;;19.94;73.96
33795;BME280;51430;52.242;21.118;2023-07-31T04:36:47;99766.43;;;19.94;73.96
33795;BME280;51430;52.242;21.118;2023-07-31T04:39:15;99769.95;;;19.96;73.79
33795;BME280;51430;52.242;21.118;2023-07-31T04:41:43;99777.30;;;19.92;73.97
33795;BME280;51430;52.242;21.118;2023-07-31T04:44:11;99782.59;;;19.93;73.95
33795;BME280;51430;52.242;21.118;2023-07-31T04:46:39;99788.68;;;19.94;73.91
33795;BME280;51430;52.242;21.118;2023-07-31T04:49:07;99787.34;;;19.94;74.05
33795;BME280;51430;52.242;21.118;2023-07-31T04:51:35;99788.01;;;19.96;73.87
33795;BME280;51430;52.242;21.118;2023-07-31T04:54:03;99786.86;;;19.95;73.93
33795;BME280;51430;52.242;21.118;2023-07-31T04:56:31;99778.34;;;19.92;73.64
33795;BME280;51430;52.242;21.118;2023-07-31T04:58:58;99780.56;;;19.91;73.71
33795;BME280;51430;52.242;21.118;2023-07-31T05:01:26;99780.04;;;19.91;73.78
33795;BME280;51430;52.242;21.118;2023-07-31T05:03:54;99779.52;;;19.94;73.75
33795;BME280;51430;52.242;21.118;2023-07-31T05:06:22;99777.63;;;20.03;73.70
33795;BME280;51430;52.242;21.118;2023-07-31T05:08:50;99779.55;;;20.14;73.65
33795;BME280;51430;52.242;21.118;2023-07-31T05:11:18;99781.97;;;20.23;73.20
33795;BME280;51430;52.242;21.118;2023-07-31T05:13:46;99782.83;;;20.32;72.44
33795;BME280;51430;52.242;21.118;2023-07-31T05:16:14;99784.67;;;20.36;71.79
33795;BME280;51430;52.242;21.118;2023-07-31T05:18:41;99788.71;;;20.36;71.84
33795;BME280;51430;52.242;21.118;2023-07-31T05:21:09;99786.42;;;20.42;71.95
33795;BME280;51430;52.242;21.118;2023-07-31T05:23:37;99788.34;;;20.41;71.41
33795;BME280;51430;52.242;21.118;2023-07-31T05:26:06;99791.84;;;20.39;71.23
33795;BME280;51430;52.242;21.118;2023-07-31T05:28:34;99790.30;;;20.41;71.29
33795;BME280;51430;52.242;21.118;2023-07-31T05:31:03;99792.83;;;20.44;71.28
33795;BME280;51430;52.242;21.118;2023-07-31T05:33:32;99793.04;;;20.55;71.34
33795;BME280;51430;52.242;21.118;2023-07-31T05:36:00;99790.06;;;20.64;70.74
33795;BME280;51430;52.242;21.118;2023-07-31T05:38:27;99792.21;;;20.78;70.65
33795;BME280;51430;52.242;21.118;2023-07-31T05:40:55;99798.63;;;20.83;70.01
33795;BME280;51430;52.242;21.118;2023-07-31T05:43:23;99800.42;;;20.82;70.06
33795;BME280;51430;52.242;21.118;2023-07-31T05:45:51;99800.27;;;20.72;70.32
33795;BME280;51430;52.242;21.118;2023-07-31T05:48:19;99804.73;;;20.67;70.51
33795;BME280;51430;52.242;21.118;2023-07-31T05:50:47;99809.50;;;20.66;70.68
33795;BME280;51430;52.242;21.118;2023-07-31T05:53:15;99809.40;;;20.63;70.92
33795;BME280;51430;52.242;21.118;2023-07-31T05:55:44;99816.14;;;20.67;70.74
33795;BME280;51430;52.242;21.118;2023-07-31T05:58:12;99822.64;;;20.67;70.96
33795;BME280;51430;52.242;21.118;2023-07-31T06:00:40;99824.35;;;20.73;71.33
33795;BME280;51430;52.242;21.118;2023-07-31T06:03:08;99825.27;;;20.80;71.06
33795;BME280;51430;52.242;21.118;2023-07-31T06:05:37;99825.55;;;20.79;70.90
33795;BME280;51430;52.242;21.118;2023-07-31T06:08:05;99828.88;;;20.82;71.29
33795;BME280;51430;52.242;21.118;2023-07-31T06:10:33;99837.39;;;20.83;70.91
33795;BME280;51430;52.242;21.118;2023-07-31T06:13:02;99834.89;;;20.81;71.11
33795;BME280;51430;52.242;21.118;2023-07-31T06:15:30;99832.40;;;20.82;71.35
33795;BME280;51430;52.242;21.118;2023-07-31T06:17:58;99835.48;;;20.94;71.58
33795;BME280;51430;52.242;21.118;2023-07-31T06:20:30;99836.16;;;21.02;71.22
33795;BME280;51430;52.242;21.118;2023-07-31T06:23:02;99834.28;;;21.07;72.61
33795;BME280;51430;52.242;21.118;2023-07-31T06:25:33;99840.64;;;21.18;72.15
33795;BME280;51430;52.242;21.118;2023-07-31T06:28:03;99837.70;;;21.04;71.80
33795;BME280;51430;52.242;21.118;2023-07-31T06:30:35;99836.23;;;20.99;72.08
33795;BME280;51430;52.242;21.118;2023-07-31T06:33:06;99838.63;;;20.89;72.37
33795;BME280;51430;52.242;21.118;2023-07-31T06:35:39;99841.17;;;20.84;72.41
33795;BME280;51430;52.242;21.118;2023-07-31T06:38:08;99838.17;;;20.88;72.96
33795;BME280;51430;52.242;21.118;2023-07-31T06:40:41;99838.41;;;20.78;72.64
33795;BME280;51430;52.242;21.118;2023-07-31T06:43:11;99842.80;;;20.62;72.78
33795;BME280;51430;52.242;21.118;2023-07-31T06:46:05;99845.36;;;20.50;73.90
33795;BME280;51430;52.242;21.118;2023-07-31T06:48:40;99847.33;;;20.42;74.43
33795;BME280;51430;52.242;21.118;2023-07-31T06:51:16;99848.86;;;20.39;73.83
33795;BME280;51430;52.242;21.118;2023-07-31T06:53:46;99847.14;;;20.41;74.13
33795;BME280;51430;52.242;21.118;2023-07-31T06:56:22;99849.06;;;20.49;73.60
33795;BME280;51430;52.242;21.118;2023-07-31T06:58:57;99849.14;;;20.40;73.31
33795;BME280;51430;52.242;21.118;2023-07-31T07:01:26;99848.42;;;20.45;74.03
33795;BME280;51430;52.242;21.118;2023-07-31T07:03:58;99850.92;;;20.52;73.57
33795;BME280;51430;52.242;21.118;2023-07-31T07:06:31;99852.22;;;20.60;72.99
33795;BME280;51430;52.242;21.118;2023-07-31T07:09:02;99851.89;;;20.61;72.55
33795;BME280;51430;52.242;21.118;2023-07-31T07:11:32;99850.52;;;20.69;74.21
33795;BME280;51430;52.242;21.118;2023-07-31T07:14:07;99849.55;;;20.74;73.43
33795;BME280;51430;52.242;21.118;2023-07-31T07:16:38;99851.33;;;20.81;72.94
33795;BME280;51430;52.242;21.118;2023-07-31T07:19:15;99850.64;;;21.01;72.48
33795;BME280;51430;52.242;21.118;2023-07-31T07:21:49;99852.35;;;21.12;71.26
33795;BME280;51430;52.242;21.118;2023-07-31T07:24:27;99859.17;;;21.37;70.74
33795;BME280;51430;52.242;21.118;2023-07-31T07:26:56;99863.28;;;21.79;69.86
33795;BME280;51430;52.242;21.118;2023-07-31T07:29:27;99861.48;;;22.05;68.25
33795;BME280;51430;52.242;21.118;2023-07-31T07:31:55;99865.80;;;22.31;67.83
33795;BME280;51430;52.242;21.118;2023-07-31T07:34:27;99868.45;;;22.39;66.87
33795;BME280;51430;52.242;21.118;2023-07-31T07:36:55;99862.45;;;22.55;67.05
33795;BME280;51430;52.242;21.118;2023-07-31T07:39:23;99856.48;;;22.71;65.14
33795;BME280;51430;52.242;21.118;2023-07-31T07:41:51;99856.63;;;22.95;64.21
33795;BME280;51430;52.242;21.118;2023-07-31T07:44:21;99856.55;;;22.91;63.95
33795;BME280;51430;52.242;21.118;2023-07-31T07:46:51;99857.89;;;23.08;63.23
33795;BME280;51430;52.242;21.118;2023-07-31T07:49:19;99863.47;;;23.27;62.76
33795;BME280;51430;52.242;21.118;2023-07-31T07:51:47;99858.91;;;23.43;62.96
33795;BME280;51430;52.242;21.118;2023-07-31T07:54:15;99858.20;;;23.50;61.89
33795;BME280;51430;52.242;21.118;2023-07-31T07:56:44;99859.44;;;23.71;61.59
33795;BME280;51430;52.242;21.118;2023-07-31T07:59:12;99859.86;;;23.93;60.88
33795;BME280;51430;52.242;21.118;2023-07-31T08:01:40;99866.48;;;24.20;59.02
33795;BME280;51430;52.242;21.118;2023-07-31T08:04:08;99864.24;;;24.30;59.61
33795;BME280;51430;52.242;21.118;2023-07-31T08:06:36;99863.17;;;24.53;58.99
33795;BME280;51430;52.242;21.118;2023-07-31T08:09:05;99867.66;;;24.72;57.88
33795;BME280;51430;52.242;21.118;2023-07-31T08:11:34;99864.40;;;24.74;57.02
33795;BME280;51430;52.242;21.118;2023-07-31T08:14:02;99866.41;;;24.75;57.18
33795;BME280;51430;52.242;21.118;2023-07-31T08:16:30;99860.41;;;25.05;56.57
33795;BME280;51430;52.242;21.118;2023-07-31T08:19:02;99859.52;;;25.17;55.41
33795;BME280;51430;52.242;21.118;2023-07-31T08:21:31;99859.88;;;25.09;55.39
33795;BME280;51430;52.242;21.118;2023-07-31T08:23:59;99853.86;;;25.26;54.96
33795;BME280;51430;52.242;21.118;2023-07-31T08:26:27;99854.58;;;25.83;53.82
33795;BME280;51430;52.242;21.118;2023-07-31T08:28:55;99853.84;;;26.12;52.68
33795;BME280;51430;52.242;21.118;2023-07-31T08:31:23;99858.54;;;26.45;51.04
33795;BME280;51430;52.242;21.118;2023-07-31T08:33:51;99860.45;;;26.98;50.56
33795;BME280;51430;52.242;21.118;2023-07-31T08:36:19;99863.16;;;27.22;49.36
33795;BME280;51430;52.242;21.118;2023-07-31T08:38:47;99864.95;;;27.63;48.13
33795;BME280;51430;52.242;21.118;2023-07-31T08:41:15;99865.60;;;27.74;46.70
33795;BME280;51430;52.242;21.118;2023-07-31T08:43:46;99862.65;;;27.97;46.18
33795;BME280;51430;52.242;21.118;2023-07-31T08:46:14;99863.70;;;27.96;46.40
33795;BME280;51430;52.242;21.118;2023-07-31T08:48:43;99864.35;;;28.45;45.85
33795;BME280;51430;52.242;21.118;2023-07-31T08:51:14;99862.60;;;28.75;44.23
33795;BME280;51430;52.242;21.118;2023-07-31T08:53:43;99864.21;;;28.61;43.35
33795;BME280;51430;52.242;21.118;2023-07-31T08:56:11;99859.63;;;28.31;43.51
33795;BME280;51430;52.242;21.118;2023-07-31T08:58:41;99859.84;;;28.58;45.00
33795;BME280;51430;52.242;21.118;2023-07-31T09:01:11;99864.66;;;29.15;43.41
33795;BME280;51430;52.242;21.118;2023-07-31T09:03:40;99867.23;;;28.89;42.96
33795;BME280;51430;52.242;21.118;2023-07-31T09:06:09;99869.21;;;28.67;43.49
33795;BME280;51430;52.242;21.118;2023-07-31T09:08:40;99861.36;;;29.26;42.39
33795;BME280;51430;52.242;21.118;2023-07-31T09:11:10;99867.84;;;29.58;41.39
33795;BME280;51430;52.242;21.118;2023-07-31T09:13:39;99868.59;;;29.18;41.59
33795;BME280;51430;52.242;21.118;2023-07-31T09:16:09;99872.02;;;28.87;41.51
33795;BME280;51430;52.242;21.118;2023-07-31T09:18:54;99871.65;;;28.68;41.49
33795;BME280;51430;52.242;21.118;2023-07-31T09:21:26;99865.67;;;28.88;41.63
33795;BME280;51430;52.242;21.118;2023-07-31T09:23:57;99865.49;;;28.87;41.15
33795;BME280;51430;52.242;21.118;2023-07-31T09:26:36;99868.88;;;28.76;41.42
33795;BME280;51430;52.242;21.118;2023-07-31T09:29:06;99862.88;;;29.66;40.78
33795;BME280;51430;52.242;21.118;2023-07-31T09:31:39;99870.55;;;30.32;39.48
33795;BME280;51430;52.242;21.118;2023-07-31T09:34:09;99868.21;;;30.74;38.04
33795;BME280;51430;52.242;21.118;2023-07-31T09:36:48;99867.20;;;30.53;37.71
33795;BME280;51430;52.242;21.118;2023-07-31T09:39:17;99869.53;;;29.55;39.56
33795;BME280;51430;52.242;21.118;2023-07-31T09:41:53;99867.80;;;29.23;40.98
33795;BME280;51430;52.242;21.118;2023-07-31T09:44:37;99862.52;;;29.75;41.25
33795;BME280;51430;52.242;21.118;2023-07-31T09:47:21;99865.77;;;29.79;40.77
33795;BME280;51430;52.242;21.118;2023-07-31T09:49:51;99873.39;;;30.19;39.46
33795;BME280;51430;52.242;21.118;2023-07-31T09:52:19;99872.08;;;29.93;39.07
33795;BME280;51430;52.242;21.118;2023-07-31T09:54:47;99867.90;;;29.96;38.95
33795;BME280;51430;52.242;21.118;2023-07-31T09:57:16;99865.14;;;29.95;39.31
33795;BME280;51430;52.242;21.118;2023-07-31T09:59:47;99865.55;;;30.44;39.04
33795;BME280;51430;52.242;21.118;2023-07-31T10:02:21;99867.23;;;30.86;38.76
33795;BME280;51430;52.242;21.118;2023-07-31T10:04:50;99872.98;;;31.33;38.00
33795;BME280;51430;52.242;21.118;2023-07-31T10:07:20;99873.20;;;31.41;37.48
33795;BME280;51430;52.242;21.118;2023-07-31T10:09:51;99867.04;;;30.78;37.86
33795;BME280;51430;52.242;21.118;2023-07-31T10:12:19;99863.56;;;31.11;38.14
33795;BME280;51430;52.242;21.118;2023-07-31T10:14:54;99865.08;;;30.68;37.78
33795;BME280;51430;52.242;21.118;2023-07-31T10:17:23;99862.50;;;30.20;38.58
33795;BME280;51430;52.242;21.118;2023-07-31T10:19:56;99861.66;;;30.66;38.04
33795;BME280;51430;52.242;21.118;2023-07-31T10:22:30;99863.66;;;31.22;37.43
33795;BME280;51430;52.242;21.118;2023-07-31T10:25:00;99866.04;;;31.36;35.92
33795;BME280;51430;52.242;21.118;2023-07-31T10:27:34;99862.84;;;31.51;35.38
33795;BME280;51430;52.242;21.118;2023-07-31T10:30:06;99869.06;;;31.98;34.82
33795;BME280;51430;52.242;21.118;2023-07-31T10:32:36;99869.22;;;32.41;34.13
33795;BME280;51430;52.242;21.118;2023-07-31T10:35:06;99868.95;;;32.16;32.92
33795;BME280;51430;52.242;21.118;2023-07-31T10:37:37;99871.90;;;32.43;33.72
33795;BME280;51430;52.242;21.118;2023-07-31T10:40:11;99871.05;;;32.93;32.82
33795;BME280;51430;52.242;21.118;2023-07-31T10:42:52;99866.39;;;33.30;32.60
33795;BME280;51430;52.242;21.118;2023-07-31T10:45:33;99865.27;;;34.03;32.03
33795;BME280;51430;52.242;21.118;2023-07-31T10:48:12;99867.38;;;34.71;31.05
33795;BME280;51430;52.242;21.118;2023-07-31T10:50:56;99874.08;;;34.45;29.71
33795;BME280;51430;52.242;21.118;2023-07-31T10:53:25;99870.61;;;34.10;30.44
33795;BME280;51430;52.242;21.118;2023-07-31T10:55:58;99870.20;;;34.15;30.93
33795;BME280;51430;52.242;21.118;2023-07-31T10:58:27;99870.48;;;34.02;31.09
33795;BME280;51430;52.242;21.118;2023-07-31T11:00:58;99869.80;;;33.62;31.35
33795;BME280;51430;52.242;21.118;2023-07-31T11:06:10;99866.71;;;33.99;31.84
33795;BME280;51430;52.242;21.118;2023-07-31T11:08:49;99865.46;;;33.37;31.26
33795;BME280;51430;52.242;21.118;2023-07-31T11:11:20;99863.89;;;33.31;32.32
33795;BME280;51430;52.242;21.118;2023-07-31T11:13:50;99862.83;;;33.48;30.59
33795;BME280;51430;52.242;21.118;2023-07-31T11:16:21;99868.92;;;33.08;30.58
33795;BME280;51430;52.242;21.118;2023-07-31T11:18:51;99871.11;;;32.68;30.65
33795;BME280;51430;52.242;21.118;2023-07-31T11:21:21;99864.26;;;32.47;31.68
33795;BME280;51430;52.242;21.118;2023-07-31T11:23:56;99862.97;;;32.31;32.13
33795;BME280;51430;52.242;21.118;2023-07-31T11:26:27;99862.82;;;32.78;32.09
33795;BME280;51430;52.242;21.118;2023-07-31T11:28:55;99860.27;;;33.49;30.47
33795;BME280;51430;52.242;21.118;2023-07-31T11:31:23;99858.32;;;33.50;29.66
33795;BME280;51430;52.242;21.118;2023-07-31T11:34:04;99859.57;;;34.13;29.04
33795;BME280;51430;52.242;21.118;2023-07-31T11:36:32;99865.16;;;33.99;28.20
33795;BME280;51430;52.242;21.118;2023-07-31T11:39:10;99856.89;;;33.12;29.57
33795;BME280;51430;52.242;21.118;2023-07-31T11:41:40;99865.63;;;32.84;29.05
33795;BME280;51430;52.242;21.118;2023-07-31T11:44:09;99861.50;;;32.04;30.30
33795;BME280;51430;52.242;21.118;2023-07-31T11:46:56;99863.27;;;31.82;30.30
33795;BME280;51430;52.242;21.118;2023-07-31T11:49:25;99856.67;;;31.47;30.48
33795;BME280;51430;52.242;21.118;2023-07-31T11:51:54;99849.67;;;31.31;30.72
33795;BME280;51430;52.242;21.118;2023-07-31T11:54:22;99845.39;;;30.59;31.49
33795;BME280;51430;52.242;21.118;2023-07-31T11:56:50;99838.26;;;30.65;32.68
33795;BME280;51430;52.242;21.118;2023-07-31T11:59:18;99842.94;;;31.29;33.56
33795;BME280;51430;52.242;21.118;2023-07-31T12:01:47;99841.95;;;31.42;32.27
33795;BME280;51430;52.242;21.118;2023-07-31T12:04:18;99838.58;;;31.24;31.72
33795;BME280;51430;52.242;21.118;2023-07-31T12:06:47;99832.98;;;31.09;32.48
33795;BME280;51430;52.242;21.118;2023-07-31T12:09:15;99831.10;;;30.94;33.35
33795;BME280;51430;52.242;21.118;2023-07-31T12:11:46;99829.98;;;30.86;33.42
33795;BME280;51430;52.242;21.118;2023-07-31T12:14:24;99829.69;;;30.73;33.02
33795;BME280;51430;52.242;21.118;2023-07-31T12:16:56;99832.05;;;30.35;33.45
33795;BME280;51430;52.242;21.118;2023-07-31T12:19:25;99832.23;;;30.25;33.35
33795;BME280;51430;52.242;21.118;2023-07-31T12:21:58;99831.86;;;29.85;34.47
33795;BME280;51430;52.242;21.118;2023-07-31T12:24:27;99829.39;;;30.07;35.26
33795;BME280;51430;52.242;21.118;2023-07-31T12:26:59;99827.06;;;30.02;34.24
33795;BME280;51430;52.242;21.118;2023-07-31T12:29:42;99820.71;;;29.74;34.81
33795;BME280;51430;52.242;21.118;2023-07-31T12:32:24;99817.42;;;29.92;34.66
33795;BME280;51430;52.242;21.118;2023-07-31T12:35:01;99820.05;;;29.86;34.60
33795;BME280;51430;52.242;21.118;2023-07-31T12:50:56;99803.90;;;29.45;36.64
33795;BME280;51430;52.242;21.118;2023-07-31T12:53:24;99801.52;;;28.94;37.04
33795;BME280;51430;52.242;21.118;2023-07-31T12:55:52;99800.00;;;28.52;37.64
33795;BME280;51430;52.242;21.118;2023-07-31T12:58:20;99791.02;;;28.37;38.01
33795;BME280;51430;52.242;21.118;2023-07-31T13:00:48;99793.21;;;28.24;37.88
33795;BME280;51430;52.242;21.118;2023-07-31T13:03:16;99792.20;;;27.92;38.19
33795;BME280;51430;52.242;21.118;2023-07-31T13:05:44;99786.95;;;27.42;38.71
33795;BME280;51430;52.242;21.118;2023-07-31T13:08:12;99786.85;;;27.13;39.30
33795;BME280;51430;52.242;21.118;2023-07-31T13:10:44;99780.25;;;27.47;39.27
33795;BME280;51430;52.242;21.118;2023-07-31T13:13:12;99779.70;;;27.97;38.92
33795;BME280;51430;52.242;21.118;2023-07-31T13:15:41;99773.11;;;28.51;38.26
33795;BME280;51430;52.242;21.118;2023-07-31T13:18:10;99775.10;;;28.59;37.72
33795;BME280;51430;52.242;21.118;2023-07-31T13:20:37;99765.99;;;28.56;37.93